sensor_id;sensor_type;location;lat;lon;timestamp;pressure;altitude;pressure_sealevel;temperature;humidity
50933;BME280;36921;49.006;9.292;2024-03-08T00:01:39;98754.56;;;2.74;100.00
50933;BME280;36921;49.006;9.292;2024-03-08T00:04:04;98749.59;;;2.79;100.00
50933;BME280;36921;49.006;9.292;2024-03-08T00:06:31;98734.50;;;2.70;100.00
50933;BME280;36921;49.006;9.292;2024-03-08T00:08:56;98748.09;;;2.76;100.00
50933;BME280;36921;49.006;9.292;2024-03-08T00:11:22;98744.72;;;2.74;100.00
50933;BME280;36921;49.006;9.292;2024-03-08T00:13:47;98731.69;;;2.71;100.00
50933;BME280;36921;49.006;9.292;2024-03-08T00:16:13;98732.69;;;2.70;100.00
50933;BME280;36921;49.006;9.292;2024-03-08T00:18:38;98684.34;;;2.37;100.00
50933;BME280;36921;49.006;9.292;2024-03-08T00:21:03;98714.06;;;2.60;100.00
50933;BME280;36921;49.006;9.292;2024-03-08T00:23:29;98722.22;;;2.59;100.00
50933;BME280;36921;49.006;9.292;2024-03-08T00:25:54;98719.72;;;2.57;100.00
50933;BME280;36921;49.006;9.292;2024-03-08T00:28:21;98749.38;;;2.72;100.00
50933;BME280;36921;49.006;9.292;2024-03-08T00:30:46;98694.31;;;2.35;100.00
50933;BME280;36921;49.006;9.292;2024-03-08T00:33:11;98718.91;;;2.57;100.00
50933;BME280;36921;49.006;9.292;2024-03-08T00:35:37;98741.84;;;2.68;100.00
50933;BME280;36921;49.006;9.292;2024-03-08T00:38:02;98704.78;;;2.47;100.00
50933;BME280;36921;49.006;9.292;2024-03-08T00:40:27;98717.00;;;2.49;100.00
50933;BME280;36921;49.006;9.292;2024-03-08T00:42:54;98677.53;;;2.25;100.00
50933;BME280;36921;49.006;9.292;2024-03-08T00:45:19;98695.31;;;2.34;100.00
50933;BME280;36921;49.006;9.292;2024-03-08T00:47:44;98684.59;;;2.26;100.00
50933;BME280;36921;49.006;9.292;2024-03-08T00:50:10;98699.97;;;2.32;100.00
50933;BME280;36921;49.006;9.292;2024-03-08T00:52:36;98691.66;;;2.35;100.00
50933;BME280;36921;49.006;9.292;2024-03-08T00:55:02;98702.41;;;2.44;100.00
50933;BME280;36921;49.006;9.292;2024-03-08T00:57:27;98698.06;;;2.42;100.00
50933;BME280;36921;49.006;9.292;2024-03-08T00:59:53;98686.31;;;2.35;100.00
50933;BME280;36921;49.006;9.292;2024-03-08T01:02:18;98696.78;;;2.47;100.00
50933;BME280;36921;49.006;9.292;2024-03-08T01:04:44;98664.97;;;2.35;100.00
50933;BME280;36921;49.006;9.292;2024-03-08T01:07:10;98696.38;;;2.59;100.00
50933;BME280;36921;49.006;9.292;2024-03-08T01:09:35;98697.22;;;2.60;100.00
50933;BME280;36921;49.006;9.292;2024-03-08T01:12:01;98688.00;;;2.54;100.00
50933;BME280;36921;49.006;9.292;2024-03-08T01:14:26;98694.53;;;2.60;100.00
50933;BME280;36921;49.006;9.292;2024-03-08T01:16:52;98691.88;;;2.60;100.00
50933;BME280;36921;49.006;9.292;2024-03-08T01:19:17;98687.13;;;2.54;100.00
50933;BME280;36921;49.006;9.292;2024-03-08T01:21:43;98683.81;;;2.52;100.00
50933;BME280;36921;49.006;9.292;2024-03-08T01:24:09;98680.13;;;2.53;100.00
50933;BME280;36921;49.006;9.292;2024-03-08T01:26:34;98675.16;;;2.58;100.00
50933;BME280;36921;49.006;9.292;2024-03-08T01:29:00;98676.44;;;2.54;100.00
50933;BME280;36921;49.006;9.292;2024-03-08T01:31:29;98674.94;;;2.51;100.00
50933;BME280;36921;49.006;9.292;2024-03-08T01:33:55;98670.91;;;2.47;100.00
50933;BME280;36921;49.006;9.292;2024-03-08T01:36:21;98653.06;;;2.30;100.00
50933;BME280;36921;49.006;9.292;2024-03-08T01:38:46;98670.66;;;2.40;100.00
50933;BME280;36921;49.006;9.292;2024-03-08T01:41:11;98619.47;;;2.01;100.00
50933;BME280;36921;49.006;9.292;2024-03-08T01:43:38;98635.25;;;2.12;100.00
50933;BME280;36921;49.006;9.292;2024-03-08T01:46:04;98639.72;;;2.12;100.00
50933;BME280;36921;49.006;9.292;2024-03-08T01:48:30;98645.13;;;2.20;100.00
50933;BME280;36921;49.006;9.292;2024-03-08T01:50:57;98651.72;;;2.26;100.00
50933;BME280;36921;49.006;9.292;2024-03-08T01:53:24;98638.44;;;2.16;100.00
50933;BME280;36921;49.006;9.292;2024-03-08T01:55:52;98647.81;;;2.20;100.00
50933;BME280;36921;49.006;9.292;2024-03-08T01:58:18;98647.59;;;2.13;100.00
50933;BME280;36921;49.006;9.292;2024-03-08T02:00:46;98644.09;;;2.13;100.00
50933;BME280;36921;49.006;9.292;2024-03-08T02:03:14;98639.91;;;2.10;100.00
50933;BME280;36921;49.006;9.292;2024-03-08T02:05:40;98627.16;;;2.04;100.00
50933;BME280;36921;49.006;9.292;2024-03-08T02:08:06;98619.31;;;2.03;100.00
50933;BME280;36921;49.006;9.292;2024-03-08T02:10:33;98620.59;;;1.98;100.00
50933;BME280;36921;49.006;9.292;2024-03-08T02:13:01;98614.63;;;1.96;100.00
50933;BME280;36921;49.006;9.292;2024-03-08T02:15:50;98618.25;;;1.95;100.00
50933;BME280;36921;49.006;9.292;2024-03-08T02:18:15;98614.22;;;1.91;100.00
50933;BME280;36921;49.006;9.292;2024-03-08T02:20:42;98611.84;;;1.88;100.00
50933;BME280;36921;49.006;9.292;2024-03-08T02:23:07;98611.56;;;1.91;100.00
50933;BME280;36921;49.006;9.292;2024-03-08T02:25:33;98604.59;;;1.81;100.00
50933;BME280;36921;49.006;9.292;2024-03-08T02:27:58;98598.81;;;1.67;100.00
50933;BME280;36921;49.006;9.292;2024-03-08T02:30:24;98589.91;;;1.59;100.00
50933;BME280;36921;49.006;9.292;2024-03-08T02:32:50;98600.56;;;1.59;100.00
50933;BME280;36921;49.006;9.292;2024-03-08T02:35:16;98590.91;;;1.58;100.00
50933;BME280;36921;49.006;9.292;2024-03-08T02:37:41;98594.09;;;1.61;100.00
50933;BME280;36921;49.006;9.292;2024-03-08T02:40:06;98577.56;;;1.58;100.00
50933;BME280;36921;49.006;9.292;2024-03-08T02:42:32;98576.13;;;1.63;100.00
50933;BME280;36921;49.006;9.292;2024-03-08T02:44:58;98571.63;;;1.64;100.00
50933;BME280;36921;49.006;9.292;2024-03-08T02:47:23;98583.13;;;1.64;100.00
50933;BME280;36921;49.006;9.292;2024-03-08T02:49:48;98552.63;;;1.49;100.00
50933;BME280;36921;49.006;9.292;2024-03-08T02:52:15;98569.41;;;1.59;100.00
50933;BME280;36921;49.006;9.292;2024-03-08T02:54:41;98565.84;;;1.50;100.00
50933;BME280;36921;49.006;9.292;2024-03-08T02:57:06;98558.34;;;1.54;100.00
50933;BME280;36921;49.006;9.292;2024-03-08T02:59:32;98547.41;;;1.39;100.00
50933;BME280;36921;49.006;9.292;2024-03-08T03:01:58;98540.38;;;1.38;100.00
50933;BME280;36921;49.006;9.292;2024-03-08T03:04:23;98557.00;;;1.50;100.00
50933;BME280;36921;49.006;9.292;2024-03-08T03:06:48;98570.16;;;1.51;100.00
50933;BME280;36921;49.006;9.292;2024-03-08T03:09:14;98542.28;;;1.46;100.00
50933;BME280;36921;49.006;9.292;2024-03-08T03:11:44;98547.31;;;1.49;100.00
50933;BME280;36921;49.006;9.292;2024-03-08T03:14:09;98556.53;;;1.54;100.00
50933;BME280;36921;49.006;9.292;2024-03-08T03:16:35;98556.53;;;1.54;100.00
50933;BME280;36921;49.006;9.292;2024-03-08T03:19:00;98546.47;;;1.48;100.00
50933;BME280;36921;49.006;9.292;2024-03-08T03:21:28;98552.63;;;1.49;100.00
50933;BME280;36921;49.006;9.292;2024-03-08T03:23:56;98533.59;;;1.44;100.00
50933;BME280;36921;49.006;9.292;2024-03-08T03:26:22;98546.84;;;1.53;100.00
50933;BME280;36921;49.006;9.292;2024-03-08T03:28:47;98532.56;;;1.37;100.00
50933;BME280;36921;49.006;9.292;2024-03-08T03:31:13;98541.38;;;1.37;100.00
50933;BME280;36921;49.006;9.292;2024-03-08T03:33:40;98533.06;;;1.40;100.00
50933;BME280;36921;49.006;9.292;2024-03-08T03:36:05;98529.50;;;1.31;100.00
50933;BME280;36921;49.006;9.292;2024-03-08T03:38:31;98528.75;;;1.39;100.00
50933;BME280;36921;49.006;9.292;2024-03-08T03:40:56;98543.44;;;1.43;100.00
50933;BME280;36921;49.006;9.292;2024-03-08T03:43:29;98534.22;;;1.38;100.00
50933;BME280;36921;49.006;9.292;2024-03-08T03:45:54;98516.31;;;1.30;100.00
50933;BME280;36921;49.006;9.292;2024-03-08T03:48:20;98520.66;;;1.31;100.00
50933;BME280;36921;49.006;9.292;2024-03-08T03:50:46;98539.22;;;1.41;100.00
50933;BME280;36921;49.006;9.292;2024-03-08T03:53:13;98526.06;;;1.39;100.00
50933;BME280;36921;49.006;9.292;2024-03-08T03:55:39;98514.88;;;1.36;100.00
50933;BME280;36921;49.006;9.292;2024-03-08T03:58:04;98523.94;;;1.43;100.00
50933;BME280;36921;49.006;9.292;2024-03-08T04:00:29;98494.53;;;1.17;100.00
50933;BME280;36921;49.006;9.292;2024-03-08T04:02:55;98519.16;;;1.28;100.00
50933;BME280;36921;49.006;9.292;2024-03-08T04:05:24;98490.19;;;1.16;100.00
50933;BME280;36921;49.006;9.292;2024-03-08T04:07:49;98517.53;;;1.36;100.00
50933;BME280;36921;49.006;9.292;2024-03-08T04:10:14;98523.69;;;1.36;100.00
50933;BME280;36921;49.006;9.292;2024-03-08T04:12:40;98524.69;;;1.35;100.00
50933;BME280;36921;49.006;9.292;2024-03-08T04:15:05;98534.22;;;1.38;100.00
50933;BME280;36921;49.006;9.292;2024-03-08T04:17:34;98518.44;;;1.26;100.00
50933;BME280;36921;49.006;9.292;2024-03-08T04:20:03;98525.31;;;1.29;100.00
50933;BME280;36921;49.006;9.292;2024-03-08T04:22:34;98510.22;;;1.20;100.00
50933;BME280;36921;49.006;9.292;2024-03-08T04:25:01;98522.25;;;1.24;100.00
50933;BME280;36921;49.006;9.292;2024-03-08T04:27:27;98501.44;;;1.09;100.00
50933;BME280;36921;49.006;9.292;2024-03-08T04:29:52;98487.91;;;1.03;100.00
50933;BME280;36921;49.006;9.292;2024-03-08T04:32:17;98527.59;;;1.24;100.00
50933;BME280;36921;49.006;9.292;2024-03-08T04:34:43;98492.28;;;0.94;100.00
50933;BME280;36921;49.006;9.292;2024-03-08T04:37:09;98510.97;;;1.12;100.00
50933;BME280;36921;49.006;9.292;2024-03-08T04:39:38;98513.63;;;1.12;100.00
50933;BME280;36921;49.006;9.292;2024-03-08T04:42:04;98523.84;;;1.17;100.00
50933;BME280;36921;49.006;9.292;2024-03-08T04:44:32;98482.31;;;0.96;100.00
50933;BME280;36921;49.006;9.292;2024-03-08T04:46:58;98524.91;;;1.24;100.00
50933;BME280;36921;49.006;9.292;2024-03-08T04:49:24;98480.34;;;0.98;100.00
50933;BME280;36921;49.006;9.292;2024-03-08T04:51:50;98523.16;;;1.15;100.00
50933;BME280;36921;49.006;9.292;2024-03-08T04:54:15;98507.00;;;0.98;100.00
50933;BME280;36921;49.006;9.292;2024-03-08T04:56:41;98500.41;;;1.02;100.00
50933;BME280;36921;49.006;9.292;2024-03-08T04:59:06;98505.72;;;1.02;100.00
50933;BME280;36921;49.006;9.292;2024-03-08T05:01:33;98485.34;;;0.83;100.00
50933;BME280;36921;49.006;9.292;2024-03-08T05:03:59;98496.66;;;0.95;100.00
50933;BME280;36921;49.006;9.292;2024-03-08T05:06:24;98495.94;;;0.93;100.00
50933;BME280;36921;49.006;9.292;2024-03-08T05:08:49;98512.00;;;1.01;100.00
50933;BME280;36921;49.006;9.292;2024-03-08T05:11:15;98503.63;;;0.96;100.00
50933;BME280;36921;49.006;9.292;2024-03-08T05:13:41;98498.22;;;0.88;100.00
50933;BME280;36921;49.006;9.292;2024-03-08T05:16:07;98509.34;;;1.01;100.00
50933;BME280;36921;49.006;9.292;2024-03-08T05:18:33;98489.63;;;0.94;100.00
50933;BME280;36921;49.006;9.292;2024-03-08T05:20:58;98468.16;;;0.78;100.00
50933;BME280;36921;49.006;9.292;2024-03-08T05:23:24;98500.13;;;0.96;100.00
50933;BME280;36921;49.006;9.292;2024-03-08T05:25:49;98470.41;;;0.73;100.00
50933;BME280;36921;49.006;9.292;2024-03-08T05:28:15;98486.34;;;0.82;100.00
50933;BME280;36921;49.006;9.292;2024-03-08T05:30:41;98498.69;;;1.01;100.00
50933;BME280;36921;49.006;9.292;2024-03-08T05:33:06;98492.84;;;0.98;100.00
50933;BME280;36921;49.006;9.292;2024-03-08T05:35:35;98484.69;;;0.99;100.00
50933;BME280;36921;49.006;9.292;2024-03-08T05:38:01;98488.75;;;1.03;100.00
50933;BME280;36921;49.006;9.292;2024-03-08T05:40:30;98488.44;;;1.06;100.00
50933;BME280;36921;49.006;9.292;2024-03-08T05:42:59;98502.75;;;1.05;100.00
50933;BME280;36921;49.006;9.292;2024-03-08T05:45:24;98494.00;;;1.13;100.00
50933;BME280;36921;49.006;9.292;2024-03-08T05:47:50;98499.63;;;1.10;100.00
50933;BME280;36921;49.006;9.292;2024-03-08T05:50:17;98493.06;;;1.04;100.00
50933;BME280;36921;49.006;9.292;2024-03-08T05:52:42;98492.94;;;1.06;100.00
50933;BME280;36921;49.006;9.292;2024-03-08T05:55:08;98506.09;;;1.07;100.00
50933;BME280;36921;49.006;9.292;2024-03-08T05:57:35;98495.28;;;1.09;100.00
50933;BME280;36921;49.006;9.292;2024-03-08T06:00:03;98493.31;;;1.11;100.00
50933;BME280;36921;49.006;9.292;2024-03-08T06:02:29;98498.66;;;1.11;100.00
50933;BME280;36921;49.006;9.292;2024-03-08T06:04:54;98494.84;;;1.14;100.00
50933;BME280;36921;49.006;9.292;2024-03-08T06:07:20;98497.34;;;1.15;100.00
50933;BME280;36921;49.006;9.292;2024-03-08T06:09:45;98502.38;;;1.18;100.00
50933;BME280;36921;49.006;9.292;2024-03-08T06:12:13;98497.28;;;1.25;100.00
50933;BME280;36921;49.006;9.292;2024-03-08T06:14:44;98487.81;;;1.30;100.00
50933;BME280;36921;49.006;9.292;2024-03-08T06:17:09;98490.72;;;1.37;100.00
50933;BME280;36921;49.006;9.292;2024-03-08T06:19:36;98498.50;;;1.48;100.00
50933;BME280;36921;49.006;9.292;2024-03-08T06:22:01;98485.28;;;2.09;100.00
50933;BME280;36921;49.006;9.292;2024-03-08T06:24:33;98476.47;;;2.42;100.00
50933;BME280;36921;49.006;9.292;2024-03-08T06:27:01;98483.91;;;3.24;100.00
50933;BME280;36921;49.006;9.292;2024-03-08T06:29:27;98467.16;;;4.20;100.00
50933;BME280;36921;49.006;9.292;2024-03-08T06:31:52;98473.81;;;5.42;100.00
50933;BME280;36921;49.006;9.292;2024-03-08T06:34:18;98468.09;;;5.83;100.00
50933;BME280;36921;49.006;9.292;2024-03-08T06:36:44;98472.91;;;5.88;100.00
50933;BME280;36921;49.006;9.292;2024-03-08T06:39:09;98473.00;;;6.18;100.00
50933;BME280;36921;49.006;9.292;2024-03-08T06:41:38;98467.81;;;7.27;100.00
50933;BME280;36921;49.006;9.292;2024-03-08T06:44:03;98478.06;;;7.59;100.00
50933;BME280;36921;49.006;9.292;2024-03-08T06:46:29;98479.47;;;7.98;100.00
50933;BME280;36921;49.006;9.292;2024-03-08T06:48:54;98473.56;;;7.88;100.00
50933;BME280;36921;49.006;9.292;2024-03-08T06:51:20;98481.13;;;8.27;100.00
50933;BME280;36921;49.006;9.292;2024-03-08T06:53:45;98484.59;;;8.43;100.00
50933;BME280;36921;49.006;9.292;2024-03-08T06:56:11;98476.28;;;8.16;100.00
50933;BME280;36921;49.006;9.292;2024-03-08T06:58:36;98479.41;;;8.76;100.00
50933;BME280;36921;49.006;9.292;2024-03-08T07:01:02;98468.94;;;9.82;100.00
50933;BME280;36921;49.006;9.292;2024-03-08T07:03:32;98471.97;;;11.62;98.12
50933;BME280;36921;49.006;9.292;2024-03-08T07:05:58;98460.53;;;13.16;84.69
50933;BME280;36921;49.006;9.292;2024-03-08T07:08:24;98462.81;;;13.68;76.40
50933;BME280;36921;49.006;9.292;2024-03-08T07:10:53;98467.13;;;13.08;73.07
50933;BME280;36921;49.006;9.292;2024-03-08T07:13:18;98467.25;;;13.62;71.41
50933;BME280;36921;49.006;9.292;2024-03-08T07:15:44;98470.66;;;13.27;73.03
50933;BME280;36921;49.006;9.292;2024-03-08T07:18:11;98463.94;;;14.14;68.91
50933;BME280;36921;49.006;9.292;2024-03-08T07:20:39;98454.94;;;13.48;70.26
50933;BME280;36921;49.006;9.292;2024-03-08T07:23:05;98458.03;;;13.33;68.88
50933;BME280;36921;49.006;9.292;2024-03-08T07:25:30;98459.50;;;14.78;66.63
50933;BME280;36921;49.006;9.292;2024-03-08T07:27:56;98440.31;;;14.61;64.42
50933;BME280;36921;49.006;9.292;2024-03-08T07:30:23;98443.22;;;15.36;63.45
50933;BME280;36921;49.006;9.292;2024-03-08T07:33:07;98451.28;;;14.19;65.05
50933;BME280;36921;49.006;9.292;2024-03-08T07:35:36;98459.75;;;12.60;67.62
50933;BME280;36921;49.006;9.292;2024-03-08T07:38:03;98446.84;;;10.52;74.74
50933;BME280;36921;49.006;9.292;2024-03-08T07:40:29;98450.25;;;9.06;84.37
50933;BME280;36921;49.006;9.292;2024-03-08T07:42:55;98455.53;;;8.73;95.79
50933;BME280;36921;49.006;9.292;2024-03-08T07:45:20;98467.06;;;7.76;100.00
50933;BME280;36921;49.006;9.292;2024-03-08T07:47:47;98462.88;;;7.30;100.00
50933;BME280;36921;49.006;9.292;2024-03-08T07:50:12;98459.59;;;7.13;100.00
50933;BME280;36921;49.006;9.292;2024-03-08T07:52:41;98456.16;;;6.68;100.00
50933;BME280;36921;49.006;9.292;2024-03-08T07:55:07;98454.03;;;6.49;100.00
50933;BME280;36921;49.006;9.292;2024-03-08T07:57:33;98442.72;;;6.39;100.00
50933;BME280;36921;49.006;9.292;2024-03-08T07:59:58;98446.63;;;6.21;100.00
50933;BME280;36921;49.006;9.292;2024-03-08T08:02:24;98444.28;;;6.18;100.00
50933;BME280;36921;49.006;9.292;2024-03-08T08:04:49;98446.44;;;5.85;100.00
50933;BME280;36921;49.006;9.292;2024-03-08T08:07:15;98442.94;;;5.84;100.00
50933;BME280;36921;49.006;9.292;2024-03-08T08:09:41;98435.34;;;5.88;100.00
50933;BME280;36921;49.006;9.292;2024-03-08T08:12:08;98436.50;;;6.08;100.00
50933;BME280;36921;49.006;9.292;2024-03-08T08:14:39;98441.41;;;5.67;100.00
50933;BME280;36921;49.006;9.292;2024-03-08T08:17:06;98443.56;;;5.86;100.00
50933;BME280;36921;49.006;9.292;2024-03-08T08:19:34;98440.38;;;5.68;100.00
50933;BME280;36921;49.006;9.292;2024-03-08T08:22:01;98447.09;;;5.87;100.00
50933;BME280;36921;49.006;9.292;2024-03-08T08:24:27;98449.16;;;5.62;100.00
50933;BME280;36921;49.006;9.292;2024-03-08T08:26:53;98449.38;;;5.29;100.00
50933;BME280;36921;49.006;9.292;2024-03-08T08:29:18;98441.88;;;5.01;100.00
50933;BME280;36921;49.006;9.292;2024-03-08T08:31:45;98436.81;;;5.07;100.00
50933;BME280;36921;49.006;9.292;2024-03-08T08:34:11;98444.97;;;4.82;100.00
50933;BME280;36921;49.006;9.292;2024-03-08T08:36:37;98442.91;;;5.00;100.00
50933;BME280;36921;49.006;9.292;2024-03-08T08:39:05;98429.69;;;5.22;100.00
50933;BME280;36921;49.006;9.292;2024-03-08T08:41:36;98437.38;;;4.94;100.00
50933;BME280;36921;49.006;9.292;2024-03-08T08:44:02;98434.13;;;5.07;100.00
50933;BME280;36921;49.006;9.292;2024-03-08T08:46:27;98428.00;;;5.44;100.00
50933;BME280;36921;49.006;9.292;2024-03-08T08:48:54;98429.84;;;5.81;100.00
50933;BME280;36921;49.006;9.292;2024-03-08T08:51:19;98422.16;;;5.78;100.00
50933;BME280;36921;49.006;9.292;2024-03-08T08:53:45;98405.97;;;6.24;100.00
50933;BME280;36921;49.006;9.292;2024-03-08T08:56:13;98416.78;;;6.46;100.00
50933;BME280;36921;49.006;9.292;2024-03-08T08:58:39;98414.25;;;6.59;100.00
50933;BME280;36921;49.006;9.292;2024-03-08T09:01:06;98406.41;;;6.43;100.00
50933;BME280;36921;49.006;9.292;2024-03-08T09:03:33;98406.75;;;6.69;100.00
50933;BME280;36921;49.006;9.292;2024-03-08T09:06:00;98410.03;;;6.20;100.00
50933;BME280;36921;49.006;9.292;2024-03-08T09:08:25;98418.72;;;6.22;100.00
50933;BME280;36921;49.006;9.292;2024-03-08T09:10:51;98408.91;;;6.14;100.00
50933;BME280;36921;49.006;9.292;2024-03-08T09:13:18;98413.28;;;5.78;100.00
50933;BME280;36921;49.006;9.292;2024-03-08T09:15:43;98407.69;;;6.02;100.00
50933;BME280;36921;49.006;9.292;2024-03-08T09:18:10;98404.41;;;5.92;100.00
50933;BME280;36921;49.006;9.292;2024-03-08T09:20:36;98409.78;;;5.92;100.00
50933;BME280;36921;49.006;9.292;2024-03-08T09:23:02;98400.50;;;6.03;100.00
50933;BME280;36921;49.006;9.292;2024-03-08T09:25:29;98393.72;;;6.07;100.00
50933;BME280;36921;49.006;9.292;2024-03-08T09:27:54;98404.19;;;6.17;100.00
50933;BME280;36921;49.006;9.292;2024-03-08T09:30:20;98391.69;;;6.09;100.00
50933;BME280;36921;49.006;9.292;2024-03-08T09:32:47;98394.66;;;6.29;100.00
50933;BME280;36921;49.006;9.292;2024-03-08T09:35:12;98392.50;;;6.09;100.00
50933;BME280;36921;49.006;9.292;2024-03-08T09:37:38;98383.53;;;6.17;100.00
50933;BME280;36921;49.006;9.292;2024-03-08T09:40:04;98388.91;;;6.32;100.00
50933;BME280;36921;49.006;9.292;2024-03-08T09:42:35;98376.75;;;6.51;100.00
50933;BME280;36921;49.006;9.292;2024-03-08T09:45:05;98382.88;;;6.45;100.00
50933;BME280;36921;49.006;9.292;2024-03-08T09:47:33;98383.31;;;6.63;100.00
50933;BME280;36921;49.006;9.292;2024-03-08T09:49:59;98377.50;;;6.81;100.00
50933;BME280;36921;49.006;9.292;2024-03-08T09:52:26;98375.94;;;7.08;100.00
50933;BME280;36921;49.006;9.292;2024-03-08T09:54:52;98380.03;;;7.47;100.00
50933;BME280;36921;49.006;9.292;2024-03-08T09:57:19;98375.41;;;7.41;100.00
50933;BME280;36921;49.006;9.292;2024-03-08T09:59:45;98374.31;;;7.57;100.00
50933;BME280;36921;49.006;9.292;2024-03-08T10:02:16;98366.94;;;7.65;100.00
50933;BME280;36921;49.006;9.292;2024-03-08T10:04:42;98368.09;;;7.84;100.00
50933;BME280;36921;49.006;9.292;2024-03-08T10:07:08;98364.56;;;9.15;100.00
50933;BME280;36921;49.006;9.292;2024-03-08T10:09:34;98352.94;;;9.34;100.00
50933;BME280;36921;49.006;9.292;2024-03-08T10:12:01;98347.16;;;9.44;100.00
50933;BME280;36921;49.006;9.292;2024-03-08T10:14:27;98342.31;;;10.71;100.00
50933;BME280;36921;49.006;9.292;2024-03-08T10:16:53;98342.13;;;10.66;100.00
50933;BME280;36921;49.006;9.292;2024-03-08T10:19:20;98335.81;;;13.14;92.44
50933;BME280;36921;49.006;9.292;2024-03-08T10:21:49;98310.22;;;14.63;81.42
50933;BME280;36921;49.006;9.292;2024-03-08T10:24:14;98331.38;;;15.47;76.08
50933;BME280;36921;49.006;9.292;2024-03-08T10:26:40;98328.28;;;14.17;74.41
50933;BME280;36921;49.006;9.292;2024-03-08T10:29:05;98320.53;;;15.19;72.30
50933;BME280;36921;49.006;9.292;2024-03-08T10:31:33;98317.53;;;13.87;73.28
50933;BME280;36921;49.006;9.292;2024-03-08T10:33:58;98303.63;;;15.33;69.71
50933;BME280;36921;49.006;9.292;2024-03-08T10:36:24;98302.47;;;16.58;66.39
50933;BME280;36921;49.006;9.292;2024-03-08T10:38:51;98299.44;;;17.95;63.15
50933;BME280;36921;49.006;9.292;2024-03-08T10:41:18;98309.25;;;19.01;58.81
50933;BME280;36921;49.006;9.292;2024-03-08T10:49:26;98307.84;;;14.03;66.03
50933;BME280;36921;49.006;9.292;2024-03-08T10:51:56;98303.34;;;13.85;66.59
50933;BME280;36921;49.006;9.292;2024-03-08T10:54:25;98305.34;;;14.13;68.13
50933;BME280;36921;49.006;9.292;2024-03-08T10:56:59;98300.50;;;14.15;67.75
50933;BME280;36921;49.006;9.292;2024-03-08T10:59:26;98296.84;;;13.51;69.56
50933;BME280;36921;49.006;9.292;2024-03-08T11:01:54;98299.19;;;12.75;71.53
50933;BME280;36921;49.006;9.292;2024-03-08T11:04:19;98297.63;;;12.67;72.97
50933;BME280;36921;49.006;9.292;2024-03-08T11:06:50;98287.06;;;11.92;75.05
50933;BME280;36921;49.006;9.292;2024-03-08T11:09:28;98283.50;;;12.77;72.86
50933;BME280;36921;49.006;9.292;2024-03-08T11:12:23;98288.97;;;12.89;72.10
50933;BME280;36921;49.006;9.292;2024-03-08T11:14:54;98282.66;;;15.17;69.32
50933;BME280;36921;49.006;9.292;2024-03-08T11:19:56;98274.19;;;14.33;68.21
50933;BME280;36921;49.006;9.292;2024-03-08T11:22:23;98259.66;;;17.45;63.01
50933;BME280;36921;49.006;9.292;2024-03-08T11:24:52;98256.63;;;18.89;56.60
50933;BME280;36921;49.006;9.292;2024-03-08T11:27:17;98260.94;;;15.39;59.89
50933;BME280;36921;49.006;9.292;2024-03-08T11:29:59;98261.66;;;14.32;64.76
50933;BME280;36921;49.006;9.292;2024-03-08T11:32:28;98261.50;;;16.58;61.38
50933;BME280;36921;49.006;9.292;2024-03-08T11:34:54;98239.66;;;17.77;58.94
50933;BME280;36921;49.006;9.292;2024-03-08T11:37:21;98245.09;;;18.14;56.49
50933;BME280;36921;49.006;9.292;2024-03-08T11:39:51;98246.41;;;16.06;58.52
50933;BME280;36921;49.006;9.292;2024-03-08T11:42:17;98246.88;;;16.03;59.68
50933;BME280;36921;49.006;9.292;2024-03-08T11:44:47;98231.84;;;18.58;56.04
50933;BME280;36921;49.006;9.292;2024-03-08T11:47:14;98223.03;;;18.51;55.33
50933;BME280;36921;49.006;9.292;2024-03-08T11:49:41;98225.63;;;18.05;54.57
50933;BME280;36921;49.006;9.292;2024-03-08T11:52:13;98226.31;;;18.43;53.97
50933;BME280;36921;49.006;9.292;2024-03-08T11:54:41;98220.69;;;16.73;55.67
50933;BME280;36921;49.006;9.292;2024-03-08T11:57:09;98223.94;;;15.99;58.00
50933;BME280;36921;49.006;9.292;2024-03-08T11:59:37;98210.81;;;17.26;56.98
50933;BME280;36921;49.006;9.292;2024-03-08T12:02:05;98204.16;;;18.65;53.81
50933;BME280;36921;49.006;9.292;2024-03-08T12:04:31;98198.41;;;18.61;53.92
50933;BME280;36921;49.006;9.292;2024-03-08T12:07:02;98191.63;;;19.46;51.80
50933;BME280;36921;49.006;9.292;2024-03-08T12:09:33;98191.38;;;19.17;53.04
50933;BME280;36921;49.006;9.292;2024-03-08T12:12:02;98180.38;;;19.63;51.80
50933;BME280;36921;49.006;9.292;2024-03-08T12:14:31;98175.44;;;20.40;51.25
50933;BME280;36921;49.006;9.292;2024-03-08T12:16:58;98175.13;;;20.52;49.40
50933;BME280;36921;49.006;9.292;2024-03-08T12:19:23;98178.78;;;19.26;51.88
50933;BME280;36921;49.006;9.292;2024-03-08T12:21:49;98171.38;;;19.06;51.48
50933;BME280;36921;49.006;9.292;2024-03-08T12:24:16;98168.59;;;18.75;51.68
50933;BME280;36921;49.006;9.292;2024-03-08T12:26:46;98154.56;;;19.74;51.70
50933;BME280;36921;49.006;9.292;2024-03-08T12:31:43;98149.63;;;19.76;50.06
50933;BME280;36921;49.006;9.292;2024-03-08T12:34:08;98154.72;;;20.08;49.85
50933;BME280;36921;49.006;9.292;2024-03-08T12:36:35;98145.53;;;19.68;50.42
50933;BME280;36921;49.006;9.292;2024-03-08T12:39:01;98143.16;;;20.11;49.78
50933;BME280;36921;49.006;9.292;2024-03-08T12:41:29;98133.16;;;20.41;49.46
50933;BME280;36921;49.006;9.292;2024-03-08T12:43:55;98130.50;;;21.63;48.08
50933;BME280;36921;49.006;9.292;2024-03-08T12:46:21;98123.50;;;20.44;48.18
50933;BME280;36921;49.006;9.292;2024-03-08T12:48:55;98121.38;;;19.60;49.64
50933;BME280;36921;49.006;9.292;2024-03-08T12:51:21;98135.09;;;18.43;51.15
50933;BME280;36921;49.006;9.292;2024-03-08T12:53:46;98122.19;;;18.28;51.96
50933;BME280;36921;49.006;9.292;2024-03-08T12:56:28;98108.88;;;19.03;51.79
50933;BME280;36921;49.006;9.292;2024-03-08T12:58:54;98109.88;;;20.23;49.93
50933;BME280;36921;49.006;9.292;2024-03-08T13:01:19;98102.22;;;20.20;49.73
50933;BME280;36921;49.006;9.292;2024-03-08T13:03:44;98095.00;;;19.75;50.34
50933;BME280;36921;49.006;9.292;2024-03-08T13:06:10;98096.44;;;21.00;48.32
50933;BME280;36921;49.006;9.292;2024-03-08T13:08:36;98083.16;;;20.39;48.24